sensor_id;sensor_type;location;lat;lon;timestamp;P1;durP1;ratioP1;P2;durP2;ratioP2
5010;SDS011;2524;54.364;10.072;2024-03-07T00:02:18;18.70;;;11.17;;
5010;SDS011;2524;54.364;10.072;2024-03-07T00:04:44;20.00;;;10.47;;
5010;SDS011;2524;54.364;10.072;2024-03-07T00:07:10;15.30;;;9.93;;
5010;SDS011;2524;54.364;10.072;2024-03-07T00:09:36;18.30;;;9.50;;
5010;SDS011;2524;54.364;10.072;2024-03-07T00:12:02;14.67;;;8.70;;
5010;SDS011;2524;54.364;10.072;2024-03-07T00:14:28;8.03;;;7.00;;
5010;SDS011;2524;54.364;10.072;2024-03-07T00:16:54;9.97;;;7.53;;
5010;SDS011;2524;54.364;10.072;2024-03-07T00:19:26;7.10;;;6.40;;
5010;SDS011;2524;54.364;10.072;2024-03-07T00:21:52;7.90;;;7.03;;
5010;SDS011;2524;54.364;10.072;2024-03-07T00:24:18;12.73;;;8.87;;
5010;SDS011;2524;54.364;10.072;2024-03-07T00:26:47;9.43;;;7.33;;
5010;SDS011;2524;54.364;10.072;2024-03-07T00:29:17;14.90;;;8.60;;
5010;SDS011;2524;54.364;10.072;2024-03-07T00:31:43;7.47;;;6.77;;
5010;SDS011;2524;54.364;10.072;2024-03-07T00:34:12;15.47;;;10.40;;
5010;SDS011;2524;54.364;10.072;2024-03-07T00:36:41;15.80;;;9.23;;
5010;SDS011;2524;54.364;10.072;2024-03-07T00:39:09;10.20;;;8.13;;
5010;SDS011;2524;54.364;10.072;2024-03-07T00:41:40;18.23;;;10.20;;
5010;SDS011;2524;54.364;10.072;2024-03-07T00:44:07;12.30;;;9.50;;
5010;SDS011;2524;54.364;10.072;2024-03-07T00:46:34;15.53;;;9.70;;
5010;SDS011;2524;54.364;10.072;2024-03-07T00:49:01;14.23;;;10.03;;
5010;SDS011;2524;54.364;10.072;2024-03-07T00:51:27;14.83;;;9.30;;
5010;SDS011;2524;54.364;10.072;2024-03-07T00:53:53;12.40;;;9.03;;
5010;SDS011;2524;54.364;10.072;2024-03-07T00:56:19;11.70;;;9.13;;
5010;SDS011;2524;54.364;10.072;2024-03-07T00:58:46;13.80;;;9.57;;
5010;SDS011;2524;54.364;10.072;2024-03-07T01:01:12;13.23;;;8.87;;
5010;SDS011;2524;54.364;10.072;2024-03-07T01:03:39;16.57;;;9.00;;
5010;SDS011;2524;54.364;10.072;2024-03-07T01:06:04;15.73;;;9.30;;
5010;SDS011;2524;54.364;10.072;2024-03-07T01:08:30;17.00;;;10.07;;
5010;SDS011;2524;54.364;10.072;2024-03-07T01:10:57;14.67;;;9.43;;
5010;SDS011;2524;54.364;10.072;2024-03-07T01:13:23;12.60;;;9.00;;
5010;SDS011;2524;54.364;10.072;2024-03-07T01:15:49;11.50;;;9.17;;
5010;SDS011;2524;54.364;10.072;2024-03-07T01:18:15;9.40;;;8.03;;
5010;SDS011;2524;54.364;10.072;2024-03-07T01:20:42;14.70;;;9.97;;
5010;SDS011;2524;54.364;10.072;2024-03-07T01:23:07;12.83;;;9.97;;
5010;SDS011;2524;54.364;10.072;2024-03-07T01:25:33;15.77;;;10.30;;
5010;SDS011;2524;54.364;10.072;2024-03-07T01:27:59;14.40;;;9.63;;
5010;SDS011;2524;54.364;10.072;2024-03-07T01:30:26;11.90;;;9.10;;
5010;SDS011;2524;54.364;10.072;2024-03-07T01:32:53;12.57;;;8.40;;
5010;SDS011;2524;54.364;10.072;2024-03-07T01:35:19;11.17;;;7.83;;
5010;SDS011;2524;54.364;10.072;2024-03-07T01:37:45;13.00;;;9.40;;
5010;SDS011;2524;54.364;10.072;2024-03-07T01:40:10;12.60;;;9.30;;
5010;SDS011;2524;54.364;10.072;2024-03-07T01:42:36;10.60;;;8.10;;
5010;SDS011;2524;54.364;10.072;2024-03-07T01:45:02;13.03;;;8.40;;
5010;SDS011;2524;54.364;10.072;2024-03-07T01:47:28;11.10;;;8.60;;
5010;SDS011;2524;54.364;10.072;2024-03-07T01:49:54;15.63;;;9.17;;
5010;SDS011;2524;54.364;10.072;2024-03-07T01:52:20;13.80;;;8.23;;
5010;SDS011;2524;54.364;10.072;2024-03-07T01:54:47;14.63;;;9.20;;
5010;SDS011;2524;54.364;10.072;2024-03-07T01:57:14;10.50;;;8.80;;
5010;SDS011;2524;54.364;10.072;2024-03-07T01:59:42;10.00;;;8.10;;
5010;SDS011;2524;54.364;10.072;2024-03-07T02:02:08;9.67;;;8.47;;
5010;SDS011;2524;54.364;10.072;2024-03-07T02:04:34;10.77;;;8.50;;
5010;SDS011;2524;54.364;10.072;2024-03-07T02:07:00;12.87;;;9.70;;
5010;SDS011;2524;54.364;10.072;2024-03-07T02:09:25;11.77;;;8.07;;
5010;SDS011;2524;54.364;10.072;2024-03-07T02:11:51;10.43;;;8.43;;
5010;SDS011;2524;54.364;10.072;2024-03-07T02:14:16;13.40;;;9.20;;
5010;SDS011;2524;54.364;10.072;2024-03-07T02:16:42;10.33;;;8.57;;
5010;SDS011;2524;54.364;10.072;2024-03-07T02:19:10;10.27;;;8.43;;
5010;SDS011;2524;54.364;10.072;2024-03-07T02:21:39;8.50;;;7.57;;
5010;SDS011;2524;54.364;10.072;2024-03-07T02:24:04;12.80;;;8.83;;
5010;SDS011;2524;54.364;10.072;2024-03-07T02:26:30;11.03;;;8.23;;
5010;SDS011;2524;54.364;10.072;2024-03-07T02:28:56;10.10;;;8.37;;
5010;SDS011;2524;54.364;10.072;2024-03-07T02:31:21;10.27;;;8.40;;
5010;SDS011;2524;54.364;10.072;2024-03-07T02:34:00;9.83;;;8.70;;
5010;SDS011;2524;54.364;10.072;2024-03-07T02:36:26;9.87;;;8.63;;
5010;SDS011;2524;54.364;10.072;2024-03-07T02:38:52;13.33;;;9.77;;
5010;SDS011;2524;54.364;10.072;2024-03-07T02:41:18;10.70;;;8.40;;
5010;SDS011;2524;54.364;10.072;2024-03-07T02:43:43;13.03;;;8.20;;
5010;SDS011;2524;54.364;10.072;2024-03-07T02:46:09;16.83;;;9.37;;
5010;SDS011;2524;54.364;10.072;2024-03-07T02:48:36;14.00;;;9.80;;
5010;SDS011;2524;54.364;10.072;2024-03-07T02:51:02;9.77;;;8.77;;
5010;SDS011;2524;54.364;10.072;2024-03-07T02:53:30;9.67;;;8.67;;
5010;SDS011;2524;54.364;10.072;2024-03-07T02:55:57;10.60;;;8.47;;
5010;SDS011;2524;54.364;10.072;2024-03-07T02:58:23;9.27;;;8.20;;
5010;SDS011;2524;54.364;10.072;2024-03-07T03:00:51;8.27;;;7.47;;
5010;SDS011;2524;54.364;10.072;2024-03-07T03:03:22;12.50;;;8.27;;
5010;SDS011;2524;54.364;10.072;2024-03-07T03:05:48;12.83;;;8.57;;
5010;SDS011;2524;54.364;10.072;2024-03-07T03:08:14;9.43;;;8.47;;
5010;SDS011;2524;54.364;10.072;2024-03-07T03:10:40;12.53;;;9.10;;
5010;SDS011;2524;54.364;10.072;2024-03-07T03:13:06;9.30;;;8.30;;
5010;SDS011;2524;54.364;10.072;2024-03-07T03:15:31;10.33;;;8.17;;
5010;SDS011;2524;54.364;10.072;2024-03-07T03:17:57;17.90;;;9.47;;
5010;SDS011;2524;54.364;10.072;2024-03-07T03:20:26;10.67;;;8.57;;
5010;SDS011;2524;54.364;10.072;2024-03-07T03:22:58;12.67;;;9.00;;
5010;SDS011;2524;54.364;10.072;2024-03-07T03:25:25;8.57;;;7.63;;
5010;SDS011;2524;54.364;10.072;2024-03-07T03:27:51;10.73;;;8.90;;
5010;SDS011;2524;54.364;10.072;2024-03-07T03:30:17;13.60;;;8.37;;
5010;SDS011;2524;54.364;10.072;2024-03-07T03:32:46;9.73;;;8.63;;
5010;SDS011;2524;54.364;10.072;2024-03-07T03:35:13;8.17;;;7.37;;
5010;SDS011;2524;54.364;10.072;2024-03-07T03:37:40;7.77;;;6.90;;
5010;SDS011;2524;54.364;10.072;2024-03-07T03:40:07;12.73;;;8.83;;
5010;SDS011;2524;54.364;10.072;2024-03-07T03:42:34;11.67;;;8.23;;
5010;SDS011;2524;54.364;10.072;2024-03-07T03:45:01;8.80;;;7.60;;
5010;SDS011;2524;54.364;10.072;2024-03-07T03:47:32;10.17;;;8.17;;
5010;SDS011;2524;54.364;10.072;2024-03-07T03:49:58;9.37;;;7.53;;
5010;SDS011;2524;54.364;10.072;2024-03-07T03:52:24;9.20;;;7.83;;
5010;SDS011;2524;54.364;10.072;2024-03-07T03:54:51;8.83;;;7.10;;
5010;SDS011;2524;54.364;10.072;2024-03-07T03:57:16;9.60;;;7.80;;
5010;SDS011;2524;54.364;10.072;2024-03-07T03:59:43;10.80;;;8.17;;
5010;SDS011;2524;54.364;10.072;2024-03-07T04:02:09;6.73;;;6.13;;
5010;SDS011;2524;54.364;10.072;2024-03-07T04:04:38;9.90;;;7.80;;
5010;SDS011;2524;54.364;10.072;2024-03-07T04:07:04;7.67;;;6.97;;
5010;SDS011;2524;54.364;10.072;2024-03-07T04:09:30;8.90;;;7.50;;
5010;SDS011;2524;54.364;10.072;2024-03-07T04:11:56;9.10;;;7.73;;
5010;SDS011;2524;54.364;10.072;2024-03-07T04:14:22;9.00;;;7.73;;
5010;SDS011;2524;54.364;10.072;2024-03-07T04:16:48;7.67;;;6.27;;
5010;SDS011;2524;54.364;10.072;2024-03-07T04:19:14;7.77;;;7.10;;
5010;SDS011;2524;54.364;10.072;2024-03-07T04:21:39;6.83;;;5.87;;
5010;SDS011;2524;54.364;10.072;2024-03-07T04:24:05;6.93;;;6.27;;
5010;SDS011;2524;54.364;10.072;2024-03-07T04:26:31;9.70;;;8.43;;
5010;SDS011;2524;54.364;10.072;2024-03-07T04:28:57;8.03;;;7.33;;
5010;SDS011;2524;54.364;10.072;2024-03-07T04:31:23;8.87;;;8.00;;
5010;SDS011;2524;54.364;10.072;2024-03-07T04:33:48;12.37;;;7.70;;
5010;SDS011;2524;54.364;10.072;2024-03-07T04:36:15;11.30;;;8.50;;
5010;SDS011;2524;54.364;10.072;2024-03-07T04:38:41;10.67;;;8.30;;
5010;SDS011;2524;54.364;10.072;2024-03-07T04:41:13;9.60;;;7.50;;
5010;SDS011;2524;54.364;10.072;2024-03-07T04:43:40;7.80;;;7.00;;
5010;SDS011;2524;54.364;10.072;2024-03-07T04:46:07;8.93;;;7.23;;
5010;SDS011;2524;54.364;10.072;2024-03-07T04:48:33;7.67;;;6.87;;
5010;SDS011;2524;54.364;10.072;2024-03-07T04:50:58;8.13;;;6.93;;
5010;SDS011;2524;54.364;10.072;2024-03-07T04:53:24;9.10;;;7.00;;
5010;SDS011;2524;54.364;10.072;2024-03-07T04:55:50;7.20;;;6.50;;
5010;SDS011;2524;54.364;10.072;2024-03-07T04:58:16;10.00;;;7.93;;
5010;SDS011;2524;54.364;10.072;2024-03-07T05:00:41;7.97;;;6.63;;
5010;SDS011;2524;54.364;10.072;2024-03-07T05:03:07;6.73;;;5.87;;
5010;SDS011;2524;54.364;10.072;2024-03-07T05:05:33;12.10;;;6.00;;
5010;SDS011;2524;54.364;10.072;2024-03-07T05:07:58;7.70;;;6.07;;
5010;SDS011;2524;54.364;10.072;2024-03-07T05:10:24;7.67;;;6.40;;
5010;SDS011;2524;54.364;10.072;2024-03-07T05:12:49;6.40;;;5.90;;
5010;SDS011;2524;54.364;10.072;2024-03-07T05:15:15;7.50;;;6.80;;
5010;SDS011;2524;54.364;10.072;2024-03-07T05:17:42;7.33;;;6.37;;
5010;SDS011;2524;54.364;10.072;2024-03-07T05:20:08;6.13;;;5.60;;
5010;SDS011;2524;54.364;10.072;2024-03-07T05:22:37;6.90;;;6.20;;
5010;SDS011;2524;54.364;10.072;2024-03-07T05:25:12;6.13;;;5.53;;
5010;SDS011;2524;54.364;10.072;2024-03-07T05:27:38;5.67;;;5.13;;
5010;SDS011;2524;54.364;10.072;2024-03-07T05:30:04;7.03;;;6.13;;
5010;SDS011;2524;54.364;10.072;2024-03-07T05:32:31;7.90;;;5.57;;
5010;SDS011;2524;54.364;10.072;2024-03-07T05:34:59;11.27;;;6.73;;
5010;SDS011;2524;54.364;10.072;2024-03-07T05:37:24;6.57;;;5.97;;
5010;SDS011;2524;54.364;10.072;2024-03-07T05:39:50;7.80;;;6.60;;
5010;SDS011;2524;54.364;10.072;2024-03-07T05:42:16;7.10;;;6.37;;
5010;SDS011;2524;54.364;10.072;2024-03-07T05:44:42;6.33;;;5.73;;
5010;SDS011;2524;54.364;10.072;2024-03-07T05:47:08;7.50;;;6.73;;
5010;SDS011;2524;54.364;10.072;2024-03-07T05:49:34;6.90;;;5.80;;
5010;SDS011;2524;54.364;10.072;2024-03-07T05:52:01;7.20;;;6.50;;
5010;SDS011;2524;54.364;10.072;2024-03-07T05:54:28;6.53;;;5.87;;
5010;SDS011;2524;54.364;10.072;2024-03-07T05:56:54;7.43;;;6.73;;
5010;SDS011;2524;54.364;10.072;2024-03-07T05:59:20;5.90;;;5.40;;
5010;SDS011;2524;54.364;10.072;2024-03-07T06:01:46;8.73;;;6.63;;
5010;SDS011;2524;54.364;10.072;2024-03-07T06:04:13;6.33;;;5.73;;
5010;SDS011;2524;54.364;10.072;2024-03-07T06:06:40;7.03;;;6.10;;
5010;SDS011;2524;54.364;10.072;2024-03-07T06:09:07;6.73;;;6.03;;
5010;SDS011;2524;54.364;10.072;2024-03-07T06:11:37;9.93;;;8.33;;
5010;SDS011;2524;54.364;10.072;2024-03-07T06:14:04;10.40;;;7.87;;
5010;SDS011;2524;54.364;10.072;2024-03-07T06:16:31;7.10;;;6.43;;
5010;SDS011;2524;54.364;10.072;2024-03-07T06:19:08;9.40;;;7.70;;
5010;SDS011;2524;54.364;10.072;2024-03-07T06:21:34;7.83;;;7.03;;
5010;SDS011;2524;54.364;10.072;2024-03-07T06:24:01;8.10;;;7.00;;
5010;SDS011;2524;54.364;10.072;2024-03-07T06:26:28;7.27;;;6.50;;
5010;SDS011;2524;54.364;10.072;2024-03-07T06:29:17;7.33;;;6.63;;
5010;SDS011;2524;54.364;10.072;2024-03-07T06:31:43;8.40;;;7.17;;
5010;SDS011;2524;54.364;10.072;2024-03-07T06:34:13;6.90;;;6.20;;
5010;SDS011;2524;54.364;10.072;2024-03-07T06:36:39;8.93;;;7.13;;
5010;SDS011;2524;54.364;10.072;2024-03-07T06:39:05;9.70;;;7.90;;
5010;SDS011;2524;54.364;10.072;2024-03-07T06:41:32;8.07;;;6.90;;
5010;SDS011;2524;54.364;10.072;2024-03-07T06:43:58;8.23;;;7.33;;
5010;SDS011;2524;54.364;10.072;2024-03-07T06:46:24;8.30;;;6.60;;
5010;SDS011;2524;54.364;10.072;2024-03-07T06:48:49;6.70;;;6.00;;
5010;SDS011;2524;54.364;10.072;2024-03-07T06:51:16;7.90;;;7.10;;
5010;SDS011;2524;54.364;10.072;2024-03-07T06:53:42;6.90;;;6.30;;
5010;SDS011;2524;54.364;10.072;2024-03-07T06:56:08;8.00;;;6.73;;
5010;SDS011;2524;54.364;10.072;2024-03-07T06:58:35;8.83;;;7.80;;
5010;SDS011;2524;54.364;10.072;2024-03-07T07:01:01;8.13;;;7.30;;
5010;SDS011;2524;54.364;10.072;2024-03-07T07:03:32;8.40;;;7.17;;
5010;SDS011;2524;54.364;10.072;2024-03-07T07:05:57;9.50;;;7.77;;
5010;SDS011;2524;54.364;10.072;2024-03-07T07:08:23;7.00;;;6.40;;
5010;SDS011;2524;54.364;10.072;2024-03-07T07:10:49;7.50;;;6.90;;
5010;SDS011;2524;54.364;10.072;2024-03-07T07:13:15;9.10;;;7.43;;
5010;SDS011;2524;54.364;10.072;2024-03-07T07:15:41;7.13;;;6.43;;
5010;SDS011;2524;54.364;10.072;2024-03-07T07:18:08;9.23;;;7.77;;
5010;SDS011;2524;54.364;10.072;2024-03-07T07:20:35;9.53;;;7.70;;
5010;SDS011;2524;54.364;10.072;2024-03-07T07:23:01;8.60;;;7.70;;
5010;SDS011;2524;54.364;10.072;2024-03-07T07:25:28;8.20;;;7.40;;
5010;SDS011;2524;54.364;10.072;2024-03-07T07:27:54;8.10;;;7.30;;
5010;SDS011;2524;54.364;10.072;2024-03-07T07:30:21;10.97;;;8.27;;
5010;SDS011;2524;54.364;10.072;2024-03-07T07:32:47;7.37;;;6.70;;
5010;SDS011;2524;54.364;10.072;2024-03-07T07:35:13;9.20;;;8.00;;
5010;SDS011;2524;54.364;10.072;2024-03-07T07:40:18;8.97;;;8.07;;
5010;SDS011;2524;54.364;10.072;2024-03-07T07:42:45;14.00;;;8.63;;
5010;SDS011;2524;54.364;10.072;2024-03-07T07:45:11;8.70;;;7.90;;
5010;SDS011;2524;54.364;10.072;2024-03-07T07:47:42;8.90;;;8.03;;
5010;SDS011;2524;54.364;10.072;2024-03-07T07:50:10;18.33;;;10.00;;
5010;SDS011;2524;54.364;10.072;2024-03-07T07:52:42;12.50;;;10.43;;
5010;SDS011;2524;54.364;10.072;2024-03-07T07:55:18;9.50;;;8.33;;
5010;SDS011;2524;54.364;10.072;2024-03-07T07:57:45;9.63;;;8.60;;
5010;SDS011;2524;54.364;10.072;2024-03-07T08:00:17;15.67;;;11.30;;
5010;SDS011;2524;54.364;10.072;2024-03-07T08:03:05;14.03;;;10.03;;
5010;SDS011;2524;54.364;10.072;2024-03-07T08:05:32;17.60;;;11.30;;
5010;SDS011;2524;54.364;10.072;2024-03-07T08:07:59;12.23;;;8.87;;
5010;SDS011;2524;54.364;10.072;2024-03-07T08:10:29;10.83;;;9.73;;
5010;SDS011;2524;54.364;10.072;2024-03-07T08:12:56;12.10;;;9.23;;
5010;SDS011;2524;54.364;10.072;2024-03-07T08:15:22;10.87;;;9.23;;
5010;SDS011;2524;54.364;10.072;2024-03-07T08:17:49;14.17;;;11.00;;
5010;SDS011;2524;54.364;10.072;2024-03-07T08:20:17;10.23;;;9.13;;
5010;SDS011;2524;54.364;10.072;2024-03-07T08:22:45;9.90;;;8.90;;
5010;SDS011;2524;54.364;10.072;2024-03-07T08:25:12;13.37;;;11.10;;
5010;SDS011;2524;54.364;10.072;2024-03-07T08:27:39;15.67;;;10.53;;
5010;SDS011;2524;54.364;10.072;2024-03-07T08:30:06;9.40;;;8.50;;
5010;SDS011;2524;54.364;10.072;2024-03-07T08:32:38;13.13;;;10.47;;
5010;SDS011;2524;54.364;10.072;2024-03-07T08:35:04;12.70;;;10.60;;
5010;SDS011;2524;54.364;10.072;2024-03-07T08:40:10;10.07;;;8.80;;
5010;SDS011;2524;54.364;10.072;2024-03-07T08:42:44;9.03;;;8.23;;
5010;SDS011;2524;54.364;10.072;2024-03-07T08:45:15;12.20;;;9.77;;
5010;SDS011;2524;54.364;10.072;2024-03-07T08:47:44;22.70;;;12.23;;
5010;SDS011;2524;54.364;10.072;2024-03-07T08:50:11;15.90;;;11.70;;
5010;SDS011;2524;54.364;10.072;2024-03-07T08:52:38;13.30;;;10.67;;
5010;SDS011;2524;54.364;10.072;2024-03-07T08:55:19;13.93;;;10.83;;
5010;SDS011;2524;54.364;10.072;2024-03-07T08:57:47;19.63;;;12.33;;
5010;SDS011;2524;54.364;10.072;2024-03-07T09:00:14;18.37;;;12.00;;
5010;SDS011;2524;54.364;10.072;2024-03-07T09:02:49;13.97;;;11.70;;
5010;SDS011;2524;54.364;10.072;2024-03-07T09:05:19;17.27;;;12.87;;
5010;SDS011;2524;54.364;10.072;2024-03-07T09:07:47;13.67;;;11.63;;
5010;SDS011;2524;54.364;10.072;2024-03-07T09:10:13;12.80;;;10.40;;
5010;SDS011;2524;54.364;10.072;2024-03-07T09:12:45;15.97;;;11.63;;
5010;SDS011;2524;54.364;10.072;2024-03-07T09:15:14;13.33;;;11.10;;
5010;SDS011;2524;54.364;10.072;2024-03-07T09:17:41;17.67;;;13.10;;
5010;SDS011;2524;54.364;10.072;2024-03-07T09:20:07;16.57;;;12.50;;
5010;SDS011;2524;54.364;10.072;2024-03-07T09:22:39;15.73;;;12.13;;
5010;SDS011;2524;54.364;10.072;2024-03-07T09:25:15;17.97;;;12.17;;
5010;SDS011;2524;54.364;10.072;2024-03-07T09:27:41;14.93;;;12.30;;
5010;SDS011;2524;54.364;10.072;2024-03-07T09:30:07;19.47;;;13.20;;
5010;SDS011;2524;54.364;10.072;2024-03-07T09:32:38;18.40;;;12.80;;
5010;SDS011;2524;54.364;10.072;2024-03-07T09:35:04;19.87;;;12.03;;
5010;SDS011;2524;54.364;10.072;2024-03-07T09:37:32;14.73;;;11.67;;
5010;SDS011;2524;54.364;10.072;2024-03-07T09:39:58;12.47;;;10.23;;
5010;SDS011;2524;54.364;10.072;2024-03-07T09:42:23;18.07;;;12.20;;
5010;SDS011;2524;54.364;10.072;2024-03-07T09:44:51;15.03;;;11.33;;
5010;SDS011;2524;54.364;10.072;2024-03-07T09:47:17;16.50;;;11.83;;
5010;SDS011;2524;54.364;10.072;2024-03-07T09:49:45;11.70;;;10.43;;
5010;SDS011;2524;54.364;10.072;2024-03-07T09:52:10;12.57;;;10.30;;
5010;SDS011;2524;54.364;10.072;2024-03-07T09:54:39;14.87;;;11.73;;
5010;SDS011;2524;54.364;10.072;2024-03-07T09:57:05;14.10;;;10.53;;
5010;SDS011;2524;54.364;10.072;2024-03-07T09:59:34;12.90;;;10.07;;
5010;SDS011;2524;54.364;10.072;2024-03-07T10:02:05;14.70;;;11.37;;
5010;SDS011;2524;54.364;10.072;2024-03-07T10:07:03;11.77;;;9.27;;
5010;SDS011;2524;54.364;10.072;2024-03-07T10:09:29;16.57;;;11.30;;
5010;SDS011;2524;54.364;10.072;2024-03-07T10:11:57;15.93;;;11.10;;
5010;SDS011;2524;54.364;10.072;2024-03-07T10:14:24;14.87;;;10.20;;
5010;SDS011;2524;54.364;10.072;2024-03-07T10:16:50;16.70;;;11.50;;
5010;SDS011;2524;54.364;10.072;2024-03-07T10:19:18;14.10;;;10.40;;
5010;SDS011;2524;54.364;10.072;2024-03-07T10:21:44;14.83;;;11.17;;
5010;SDS011;2524;54.364;10.072;2024-03-07T10:24:09;11.60;;;10.20;;
5010;SDS011;2524;54.364;10.072;2024-03-07T10:26:39;13.17;;;10.20;;
5010;SDS011;2524;54.364;10.072;2024-03-07T10:29:05;11.73;;;9.70;;
5010;SDS011;2524;54.364;10.072;2024-03-07T10:31:34;13.90;;;10.67;;
5010;SDS011;2524;54.364;10.072;2024-03-07T10:34:02;12.50;;;9.83;;
5010;SDS011;2524;54.364;10.072;2024-03-07T10:36:29;12.40;;;9.00;;
5010;SDS011;2524;54.364;10.072;2024-03-07T10:38:59;10.30;;;9.30;;
5010;SDS011;2524;54.364;10.072;2024-03-07T10:41:44;14.27;;;9.40;;
5010;SDS011;2524;54.364;10.072;2024-03-07T10:44:20;16.43;;;10.10;;
5010;SDS011;2524;54.364;10.072;2024-03-07T10:46:53;15.17;;;10.60;;
5010;SDS011;2524;54.364;10.072;2024-03-07T10:49:20;15.23;;;10.03;;
5010;SDS011;2524;54.364;10.072;2024-03-07T10:59:53;15.43;;;10.17;;
5010;SDS011;2524;54.364;10.072;2024-03-07T11:02:37;14.30;;;9.00;;
5010;SDS011;2524;54.364;10.072;2024-03-07T11:05:11;17.47;;;10.50;;
5010;SDS011;2524;54.364;10.072;2024-03-07T11:07:40;10.80;;;9.10;;
5010;SDS011;2524;54.364;10.072;2024-03-07T11:10:06;12.57;;;9.40;;
5010;SDS011;2524;54.364;10.072;2024-03-07T11:12:36;11.37;;;9.90;;
5010;SDS011;2524;54.364;10.072;2024-03-07T11:15:06;15.13;;;10.40;;
5010;SDS011;2524;54.364;10.072;2024-03-07T11:17:39;11.80;;;8.70;;
5010;SDS011;2524;54.364;10.072;2024-03-07T11:20:25;15.40;;;10.23;;
5010;SDS011;2524;54.364;10.072;2024-03-07T11:22:52;12.30;;;9.00;;
5010;SDS011;2524;54.364;10.072;2024-03-07T11:25:21;14.67;;;10.47;;
5010;SDS011;2524;54.364;10.072;2024-03-07T11:27:55;13.40;;;11.00;;
5010;SDS011;2524;54.364;10.072;2024-03-07T11:30:24;12.33;;;9.80;;
5010;SDS011;2524;54.364;10.072;2024-03-07T11:32:50;9.53;;;8.40;;
5010;SDS011;2524;54.364;10.072;2024-03-07T11:35:20;13.07;;;10.20;;
5010;SDS011;2524;54.364;10.072;2024-03-07T11:37:57;13.63;;;9.50;;
5010;SDS011;2524;54.364;10.072;2024-03-07T11:42:53;9.40;;;8.43;;
5010;SDS011;2524;54.364;10.072;2024-03-07T11:45:24;12.37;;;8.80;;
5010;SDS011;2524;54.364;10.072;2024-03-07T11:47:54;9.60;;;8.60;;
5010;SDS011;2524;54.364;10.072;2024-03-07T11:50:41;11.03;;;9.40;;
5010;SDS011;2524;54.364;10.072;2024-03-07T11:53:08;10.30;;;8.83;;
5010;SDS011;2524;54.364;10.072;2024-03-07T11:55:34;12.40;;;9.50;;
5010;SDS011;2524;54.364;10.072;2024-03-07T12:00:39;11.50;;;9.03;;
5010;SDS011;2524;54.364;10.072;2024-03-07T12:03:10;15.87;;;10.20;;
5010;SDS011;2524;54.364;10.072;2024-03-07T12:05:43;15.30;;;10.23;;
5010;SDS011;2524;54.364;10.072;2024-03-07T12:08:10;13.30;;;9.90;;
5010;SDS011;2524;54.364;10.072;2024-03-07T12:10:40;13.70;;;9.83;;
5010;SDS011;2524;54.364;10.072;2024-03-07T12:13:10;12.70;;;9.70;;
5010;SDS011;2524;54.364;10.072;2024-03-07T12:15:36;11.60;;;9.77;;
5010;SDS011;2524;54.364;10.072;2024-03-07T12:18:03;10.07;;;9.07;;
5010;SDS011;2524;54.364;10.072;2024-03-07T12:20:34;10.57;;;8.87;;
5010;SDS011;2524;54.364;10.072;2024-03-07T12:23:03;13.00;;;10.50;;
5010;SDS011;2524;54.364;10.072;2024-03-07T12:25:32;12.33;;;9.70;;
5010;SDS011;2524;54.364;10.072;2024-03-07T12:28:03;15.70;;;10.00;;
5010;SDS011;2524;54.364;10.072;2024-03-07T12:30:52;16.90;;;9.37;;
5010;SDS011;2524;54.364;10.072;2024-03-07T12:33:19;13.07;;;10.40;;
5010;SDS011;2524;54.364;10.072;2024-03-07T12:35:48;13.77;;;9.93;;
5010;SDS011;2524;54.364;10.072;2024-03-07T12:38:16;14.30;;;9.87;;
5010;SDS011;2524;54.364;10.072;2024-03-07T12:41:01;12.33;;;9.10;;
5010;SDS011;2524;54.364;10.072;2024-03-07T12:43:38;11.43;;;9.30;;
5010;SDS011;2524;54.364;10.072;2024-03-07T12:46:07;14.50;;;10.40;;
5010;SDS011;2524;54.364;10.072;2024-03-07T12:48:36;13.13;;;10.00;;
5010;SDS011;2524;54.364;10.072;2024-03-07T12:51:03;15.30;;;10.30;;
5010;SDS011;2524;54.364;10.072;2024-03-07T12:53:30;16.80;;;11.30;;
5010;SDS011;2524;54.364;10.072;2024-03-07T12:55:56;16.60;;;11.60;;
5010;SDS011;2524;54.364;10.072;2024-03-07T12:58:22;12.33;;;10.30;;
5010;SDS011;2524;54.364;10.072;2024-03-07T13:00:50;14.60;;;10.53;;
5010;SDS011;2524;54.364;10.072;2024-03-07T13:03:17;13.37;;;10.67;;
5010;SDS011;2524;54.364;10.072;2024-03-07T13:05:42;13.03;;;10.67;;
5010;SDS011;2524;54.364;10.072;2024-03-07T13:08:11;13.80;;;10.50;;
5010;SDS011;2524;54.364;10.072;2024-03-07T13:10:46;15.83;;;11.70;;
5010;SDS011;2524;54.364;10.072;2024-03-07T13:13:12;11.60;;;10.50;;
5010;SDS011;2524;54.364;10.072;2024-03-07T13:15:38;14.43;;;11.57;;
5010;SDS011;2524;54.364;10.072;2024-03-07T13:18:05;14.30;;;11.70;;
5010;SDS011;2524;54.364;10.072;2024-03-07T13:20:31;14.90;;;10.93;;
5010;SDS011;2524;54.364;10.072;2024-03-07T13:22:57;15.50;;;12.03;;
5010;SDS011;2524;54.364;10.072;2024-03-07T13:25:25;14.70;;;12.20;;
5010;SDS011;2524;54.364;10.072;2024-03-07T13:27:55;15.43;;;11.83;;
5010;SDS011;2524;54.364;10.072;2024-03-07T13:30:24;11.93;;;10.73;;
5010;SDS011;2524;54.364;10.072;2024-03-07T13:32:52;12.83;;;11.20;;
5010;SDS011;2524;54.364;10.072;2024-03-07T13:35:22;15.07;;;11.17;;
5010;SDS011;2524;54.364;10.072;2024-03-07T13:37:50;13.30;;;9.60;;
5010;SDS011;2524;54.364;10.072;2024-03-07T13:40:20;11.17;;;9.70;;
5010;SDS011;2524;54.364;10.072;2024-03-07T13:42:59;10.57;;;9.47;;
5010;SDS011;2524;54.364;10.072;2024-03-07T13:48:03;14.43;;;11.30;;
5010;SDS011;2524;54.364;10.072;2024-03-07T13:50:30;16.60;;;12.60;;
5010;SDS011;2524;54.364;10.072;2024-03-07T13:52:58;13.70;;;10.47;;
5010;SDS011;2524;54.364;10.072;2024-03-07T13:58:36;14.80;;;10.17;;
5010;SDS011;2524;54.364;10.072;2024-03-07T14:04:24;13.30;;;11.47;;
5010;SDS011;2524;54.364;10.072;2024-03-07T14:07:05;15.37;;;12.03;;
5010;SDS011;2524;54.364;10.072;2024-03-07T14:10:11;14.10;;;11.10;;
5010;SDS011;2524;54.364;10.072;2024-03-07T14:16:13;16.40;;;12.57;;
5010;SDS011;2524;54.364;10.072;2024-03-07T14:22:01;16.83;;;12.57;;
5010;SDS011;2524;54.364;10.072;2024-03-07T14:27:22;19.73;;;14.13;;
5010;SDS011;2524;54.364;10.072;2024-03-07T14:32:49;13.07;;;11.37;;
5010;SDS011;2524;54.364;10.072;2024-03-07T14:35:23;14.10;;;10.90;;
5010;SDS011;2524;54.364;10.072;2024-03-07T14:37:53;10.90;;;9.80;;
5010;SDS011;2524;54.364;10.072;2024-03-07T14:40:49;15.63;;;11.13;;
5010;SDS011;2524;54.364;10.072;2024-03-07T14:43:16;14.63;;;11.27;;
5010;SDS011;2524;54.364;10.072;2024-03-07T14:45:44;16.37;;;11.60;;
5010;SDS011;2524;54.364;10.072;2024-03-07T14:48:11;15.47;;;10.93;;
5010;SDS011;2524;54.364;10.072;2024-03-07T14:50:40;14.17;;;11.43;;
5010;SDS011;2524;54.364;10.072;2024-03-07T14:53:09;12.60;;;10.50;;
5010;SDS011;2524;54.364;10.072;2024-03-07T14:55:38;12.33;;;9.50;;
5010;SDS011;2524;54.364;10.072;2024-03-07T14:58:05;16.00;;;10.53;;
5010;SDS011;2524;54.364;10.072;2024-03-07T15:00:34;19.13;;;12.37;;
5010;SDS011;2524;54.364;10.072;2024-03-07T15:03:06;16.00;;;11.00;;
5010;SDS011;2524;54.364;10.072;2024-03-07T15:05:38;16.67;;;12.50;;
5010;SDS011;2524;54.364;10.072;2024-03-07T15:08:07;14.03;;;11.60;;
5010;SDS011;2524;54.364;10.072;2024-03-07T15:10:35;17.10;;;12.63;;
5010;SDS011;2524;54.364;10.072;2024-03-07T15:13:01;18.30;;;12.70;;
5010;SDS011;2524;54.364;10.072;2024-03-07T15:15:30;17.30;;;12.93;;
5010;SDS011;2524;54.364;10.072;2024-03-07T15:17:56;17.57;;;13.67;;
5010;SDS011;2524;54.364;10.072;2024-03-07T15:20:25;11.10;;;9.90;;
5010;SDS011;2524;54.364;10.072;2024-03-07T15:22:54;14.50;;;10.30;;
5010;SDS011;2524;54.364;10.072;2024-03-07T15:25:21;12.60;;;10.70;;
5010;SDS011;2524;54.364;10.072;2024-03-07T15:27:48;19.03;;;12.50;;
5010;SDS011;2524;54.364;10.072;2024-03-07T15:30:15;14.47;;;10.73;;
5010;SDS011;2524;54.364;10.072;2024-03-07T15:32:42;15.70;;;11.73;;
5010;SDS011;2524;54.364;10.072;2024-03-07T15:35:09;11.73;;;9.70;;
5010;SDS011;2524;54.364;10.072;2024-03-07T15:37:53;9.93;;;8.93;;